createdAt,value
2018-07-31T00:00:36.354Z,101730.86
2018-07-31T00:03:06.089Z,101732.72
2018-07-31T00:05:35.737Z,101731.00
2018-07-31T00:08:05.276Z,101724.06
2018-07-31T00:10:35.016Z,101723.98
2018-07-31T00:13:05.315Z,101730.58
2018-07-31T00:15:35.098Z,101729.53
2018-07-31T00:18:04.678Z,101699.62
2018-07-31T00:20:34.224Z,101729.87
2018-07-31T00:23:04.258Z,101732.19
2018-07-31T00:25:34.308Z,101737.69
2018-07-31T00:28:03.875Z,101735.55
2018-07-31T00:30:33.535Z,101733.12
2018-07-31T00:33:03.202Z,101736.22
2018-07-31T00:35:32.819Z,101728.56
2018-07-31T00:38:02.548Z,101730.71
2018-07-31T00:40:32.364Z,101736.89
2018-07-31T00:43:01.893Z,101729.08
2018-07-31T00:45:32.067Z,101724.38
2018-07-31T00:48:02.032Z,101732.18
2018-07-31T00:50:31.349Z,101723.19
2018-07-31T00:53:00.645Z,101726.88
2018-07-31T00:55:30.365Z,101729.62
2018-07-31T00:57:59.898Z,101728.81
2018-07-31T01:00:29.336Z,101725.79
2018-07-31T01:02:59.261Z,101722.64
2018-07-31T01:05:28.784Z,101720.34
2018-07-31T01:07:58.412Z,101725.03
2018-07-31T01:10:28.303Z,101715.78
2018-07-31T01:12:58.300Z,101713.61
2018-07-31T01:15:27.695Z,101718.64
2018-07-31T01:17:57.611Z,101718.04
2018-07-31T01:20:27.597Z,101713.75
2018-07-31T01:22:56.942Z,101716.97
2018-07-31T01:25:26.640Z,101717.48
2018-07-31T01:27:56.493Z,101719.36
2018-07-31T01:30:25.737Z,101721.51
2018-07-31T01:32:55.535Z,101717.48
2018-07-31T01:35:25.197Z,101725.03
2018-07-31T01:37:54.576Z,101724.95
2018-07-31T01:40:24.292Z,101723.53
2018-07-31T01:42:54.300Z,101723.69
2018-07-31T01:45:23.799Z,101716.14
2018-07-31T01:47:53.430Z,101720.66
2018-07-31T01:50:23.056Z,101718.64
2018-07-31T01:52:52.394Z,101719.64
2018-07-31T01:55:21.994Z,101715.19
2018-07-31T01:57:52.028Z,101718.67
2018-07-31T02:00:21.958Z,101724.05
2018-07-31T02:02:51.359Z,101722.32
2018-07-31T02:05:21.000Z,101712.23
2018-07-31T02:07:50.505Z,101720.38
2018-07-31T02:10:20.348Z,101709.76
2018-07-31T02:12:49.981Z,101714.66
2018-07-31T02:15:19.711Z,101705.84
2018-07-31T02:17:49.350Z,101711.48
2018-07-31T02:20:18.941Z,101706.89
2018-07-31T02:22:48.703Z,101712.91
2018-07-31T02:25:18.255Z,101706.73
2018-07-31T02:27:48.155Z,101711.57
2018-07-31T02:30:21.751Z,101708.47
2018-07-31T02:32:52.047Z,101707.55
2018-07-31T02:35:21.531Z,101709.42
2018-07-31T02:37:51.693Z,101706.44
2018-07-31T02:40:21.246Z,101707.09
2018-07-31T02:42:50.546Z,101705.40
2018-07-31T02:45:20.418Z,101714.29
2018-07-31T02:47:50.294Z,101707.09
2018-07-31T02:50:19.976Z,101706.97
2018-07-31T02:52:49.936Z,101703.37
2018-07-31T02:55:19.509Z,101705.17
2018-07-31T02:57:49.156Z,101706.05
2018-07-31T03:00:18.879Z,101705.17
2018-07-31T03:02:48.420Z,101697.19
2018-07-31T03:05:17.681Z,101690.06
2018-07-31T03:07:47.440Z,101686.30
2018-07-31T03:10:17.222Z,101688.06
2018-07-31T03:12:46.742Z,101685.27
2018-07-31T03:15:16.375Z,101690.02
2018-07-31T03:17:46.058Z,101679.51
2018-07-31T03:20:15.664Z,101680.61
2018-07-31T03:22:45.515Z,101681.08
2018-07-31T03:25:15.242Z,101681.88
2018-07-31T03:27:44.772Z,101681.00
2018-07-31T03:30:14.517Z,101688.67
2018-07-31T03:32:44.142Z,101694.42
2018-07-31T03:35:13.381Z,101699.80
2018-07-31T03:37:43.305Z,101702.55
2018-07-31T03:40:12.801Z,101706.43
2018-07-31T03:42:42.120Z,101698.69
2018-07-31T03:45:11.618Z,101698.80
2018-07-31T03:47:41.250Z,101698.03
2018-07-31T03:50:10.875Z,101698.92
2018-07-31T03:52:40.598Z,101703.55
2018-07-31T03:55:10.050Z,101706.28
2018-07-31T03:57:39.567Z,101704.55
2018-07-31T04:00:09.484Z,101705.55
2018-07-31T04:02:39.193Z,101709.76
2018-07-31T04:05:08.741Z,101704.66
2018-07-31T04:07:38.616Z,101706.16
2018-07-31T04:10:08.010Z,101706.32
2018-07-31T04:12:37.726Z,101700.72
2018-07-31T04:15:07.413Z,101706.23
2018-07-31T04:17:36.841Z,101704.13
2018-07-31T04:20:06.962Z,101695.70
2018-07-31T04:22:36.679Z,101693.70
2018-07-31T04:25:06.544Z,101693.58
2018-07-31T04:27:36.132Z,101699.64
2018-07-31T04:30:05.820Z,101700.31
2018-07-31T04:32:35.374Z,101695.63
2018-07-31T04:35:05.156Z,101694.80
2018-07-31T04:37:34.956Z,101685.95
2018-07-31T04:40:04.486Z,101684.89
2018-07-31T04:42:33.870Z,101687.24
2018-07-31T04:45:03.716Z,101685.61
2018-07-31T04:47:33.170Z,101685.69
2018-07-31T04:50:02.977Z,101689.88
2018-07-31T04:52:32.880Z,101684.63
2018-07-31T04:55:02.325Z,101684.33
2018-07-31T04:57:31.961Z,101688.23
2018-07-31T05:00:01.667Z,101689.69
2018-07-31T05:02:31.291Z,101680.80
2018-07-31T05:05:00.753Z,101682.02
2018-07-31T05:07:30.569Z,101677.42
2018-07-31T05:09:59.976Z,101675.81
2018-07-31T05:12:29.547Z,101678.47
2018-07-31T05:14:59.335Z,101678.95
2018-07-31T05:17:28.783Z,101678.77
2018-07-31T05:19:58.372Z,101681.75
2018-07-31T05:22:28.267Z,101681.46
2018-07-31T05:24:58.138Z,101679.42
2018-07-31T05:27:27.607Z,101682.20
2018-07-31T05:29:57.952Z,101674.39
2018-07-31T05:32:27.448Z,101674.77
2018-07-31T05:34:56.793Z,101684.05
2018-07-31T05:37:26.791Z,101681.27
2018-07-31T05:39:57.005Z,101680.25
2018-07-31T05:42:26.451Z,101685.08
2018-07-31T05:44:56.171Z,101681.92
2018-07-31T05:47:25.566Z,101679.08
2018-07-31T05:49:54.831Z,101681.54
2018-07-31T05:52:24.609Z,101681.63
2018-07-31T05:54:54.424Z,101685.11
2018-07-31T05:57:23.837Z,101680.17
2018-07-31T05:59:53.496Z,101680.52
2018-07-31T06:02:23.212Z,101679.88
2018-07-31T06:04:52.872Z,101680.27
2018-07-31T06:07:22.509Z,101682.30
2018-07-31T06:09:52.296Z,101677.70
2018-07-31T06:12:22.005Z,101681.27
2018-07-31T06:14:51.604Z,101670.95
2018-07-31T06:17:21.276Z,101672.76
2018-07-31T06:19:50.977Z,101678.98
2018-07-31T06:22:20.839Z,101680.39
2018-07-31T06:24:50.228Z,101677.63
2018-07-31T06:27:19.923Z,101679.81
2018-07-31T06:29:49.868Z,101681.17
2018-07-31T06:32:19.390Z,101684.75
2018-07-31T06:34:49.001Z,101683.70
2018-07-31T06:37:18.762Z,101683.14
2018-07-31T06:39:47.937Z,101688.84
2018-07-31T06:42:17.621Z,101688.68
2018-07-31T06:44:47.023Z,101684.56
2018-07-31T06:47:16.504Z,101684.78
2018-07-31T06:49:46.139Z,101685.29
2018-07-31T06:52:15.744Z,101689.42
2018-07-31T06:54:45.368Z,101687.63
2018-07-31T06:57:14.781Z,101683.45
2018-07-31T06:59:45.044Z,101688.42
2018-07-31T07:02:14.476Z,101687.41
2018-07-31T07:04:44.077Z,101690.17
2018-07-31T07:07:13.701Z,101685.06
2018-07-31T07:09:43.776Z,101690.97
2018-07-31T07:12:13.804Z,101688.25
2018-07-31T07:14:43.472Z,101688.28
2018-07-31T07:17:13.115Z,101686.23
2018-07-31T07:19:42.885Z,101685.88
2018-07-31T07:22:12.788Z,101682.59
2018-07-31T07:24:42.739Z,101685.61
2018-07-31T07:27:12.197Z,101685.92
2018-07-31T07:29:42.339Z,101688.05
2018-07-31T07:32:11.913Z,101689.99
2018-07-31T07:34:41.366Z,101694.65
2018-07-31T07:37:11.340Z,101691.59
2018-07-31T07:39:41.056Z,101687.53
2018-07-31T07:42:10.959Z,101689.91
2018-07-31T07:44:40.688Z,101689.11
2018-07-31T07:47:10.600Z,101683.44
2018-07-31T07:49:40.633Z,101690.02
2018-07-31T07:52:10.451Z,101689.91
2018-07-31T07:54:40.130Z,101690.68
2018-07-31T07:57:10.266Z,101684.75
2018-07-31T07:59:39.626Z,101680.69
2018-07-31T08:02:09.311Z,101683.94
2018-07-31T08:04:39.275Z,101687.53
2018-07-31T08:07:08.776Z,101686.02
2018-07-31T08:09:38.530Z,101687.52
2018-07-31T08:12:07.947Z,101682.08
2018-07-31T08:14:37.464Z,101685.90
2018-07-31T08:17:07.342Z,101685.36
2018-07-31T08:19:37.343Z,101687.50
2018-07-31T08:22:07.042Z,101684.63
2018-07-31T08:24:36.959Z,101687.16
2018-07-31T08:27:06.677Z,101684.83
2018-07-31T08:29:36.307Z,101684.00
2018-07-31T08:32:06.080Z,101682.81
2018-07-31T08:34:36.075Z,101677.55
2018-07-31T08:37:08.514Z,101669.80
2018-07-31T08:39:38.383Z,101664.28
2018-07-31T08:42:08.076Z,101669.80
2018-07-31T08:44:37.646Z,101669.45
2018-07-31T08:47:07.683Z,101661.76
2018-07-31T08:49:37.397Z,101661.50
2018-07-31T08:52:06.849Z,101659.41
2018-07-31T08:54:36.637Z,101662.70
2018-07-31T08:57:08.680Z,101653.47
2018-07-31T08:59:38.738Z,101655.59
2018-07-31T09:02:08.466Z,101652.61
2018-07-31T09:04:38.554Z,101646.77
2018-07-31T09:07:08.403Z,101640.18
2018-07-31T09:09:37.952Z,101648.61
2018-07-31T09:12:07.582Z,101649.64
2018-07-31T09:14:37.303Z,101646.68
2018-07-31T09:17:06.939Z,101646.68
2018-07-31T09:19:36.991Z,101636.41
2018-07-31T09:22:06.642Z,101639.73
2018-07-31T09:24:36.716Z,101638.51
2018-07-31T09:27:06.241Z,101633.93
2018-07-31T09:29:36.023Z,101639.24
2018-07-31T09:32:05.671Z,101638.47
2018-07-31T09:34:50.090Z,101637.25
2018-07-31T09:37:19.699Z,101630.33
2018-07-31T09:39:49.817Z,101633.16
2018-07-31T09:42:19.634Z,101631.06
2018-07-31T09:44:49.331Z,101615.97
2018-07-31T09:47:19.025Z,101629.31
2018-07-31T09:49:48.820Z,101622.00
2018-07-31T09:52:18.576Z,101619.38
2018-07-31T09:54:48.581Z,101619.14
2018-07-31T09:57:18.437Z,101621.86
2018-07-31T09:59:47.955Z,101610.46
2018-07-31T10:02:17.858Z,101609.29
2018-07-31T10:04:47.568Z,101610.77
2018-07-31T10:07:17.479Z,101613.77
2018-07-31T10:09:47.002Z,101611.69
2018-07-31T10:12:17.068Z,101609.02
2018-07-31T10:14:46.601Z,101613.59
2018-07-31T10:17:16.594Z,101604.73
2018-07-31T10:19:46.546Z,101609.59
2018-07-31T10:22:16.345Z,101609.84
2018-07-31T10:24:46.207Z,101608.00
2018-07-31T10:27:15.941Z,101610.28
2018-07-31T10:29:45.764Z,101617.93
2018-07-31T10:32:15.271Z,101609.64
2018-07-31T10:34:45.158Z,101614.98
2018-07-31T10:37:15.596Z,101606.05
2018-07-31T10:39:45.241Z,101601.37
2018-07-31T10:42:14.737Z,101601.36
2018-07-31T10:44:44.355Z,101597.88
2018-07-31T10:47:13.705Z,101604.20
2018-07-31T10:49:43.351Z,101601.09
2018-07-31T10:52:13.055Z,101590.08
2018-07-31T10:54:42.630Z,101590.58
2018-07-31T10:57:12.037Z,101586.00
2018-07-31T10:59:42.193Z,101598.99
2018-07-31T11:02:11.750Z,101589.22
2018-07-31T11:04:41.191Z,101585.23
2018-07-31T11:07:11.156Z,101570.62
2018-07-31T11:09:40.807Z,101577.83
2018-07-31T11:12:10.220Z,101578.30
2018-07-31T11:14:40.439Z,101571.83
2018-07-31T11:17:12.927Z,101574.08
2018-07-31T11:19:42.733Z,101567.50
2018-07-31T11:22:12.262Z,101568.86
2018-07-31T11:24:42.141Z,101561.09
2018-07-31T11:27:11.895Z,101567.03
2018-07-31T11:29:41.306Z,101564.83
2018-07-31T11:32:10.735Z,101561.95
2018-07-31T11:34:40.975Z,101554.11
2018-07-31T11:37:10.525Z,101550.09
2018-07-31T11:39:40.370Z,101548.48
2018-07-31T11:42:10.060Z,101548.71
2018-07-31T11:44:39.668Z,101548.41
2018-07-31T11:47:09.299Z,101547.87
2018-07-31T11:49:39.065Z,101543.77
2018-07-31T11:52:08.350Z,101546.83
2018-07-31T11:54:37.986Z,101543.51
2018-07-31T11:57:08.226Z,101548.56
2018-07-31T11:59:37.601Z,101547.75
2018-07-31T12:02:07.389Z,101548.45
2018-07-31T12:04:37.097Z,101542.30
2018-07-31T12:07:06.488Z,101543.39
2018-07-31T12:09:36.221Z,101539.45
2018-07-31T12:12:06.944Z,101539.09
2018-07-31T12:14:36.671Z,101535.92
2018-07-31T12:17:06.830Z,101532.70
2018-07-31T12:19:36.746Z,101526.67
2018-07-31T12:22:06.592Z,101522.37
2018-07-31T12:24:36.297Z,101524.20
2018-07-31T12:27:06.222Z,101517.70
2018-07-31T12:29:36.067Z,101515.17
2018-07-31T12:32:05.670Z,101510.45
2018-07-31T12:34:35.816Z,101508.78
2018-07-31T12:37:06.128Z,101505.09
2018-07-31T12:39:35.991Z,101503.12
2018-07-31T12:42:06.125Z,101504.07
2018-07-31T12:44:35.558Z,101500.40
2018-07-31T12:47:04.833Z,101499.16
2018-07-31T12:49:34.549Z,101496.69
2018-07-31T12:52:04.369Z,101487.95
2018-07-31T12:54:34.135Z,101498.86
2018-07-31T12:57:04.294Z,101503.10
2018-07-31T12:59:34.160Z,101497.17
2018-07-31T13:02:04.297Z,101489.13
2018-07-31T13:04:34.632Z,101487.05
2018-07-31T13:07:04.933Z,101493.88
2018-07-31T13:09:34.993Z,101490.44
2018-07-31T13:12:05.793Z,101490.44
2018-07-31T13:14:35.752Z,101485.52
2018-07-31T13:17:06.652Z,101480.33
2018-07-31T13:19:36.095Z,101484.59
2018-07-31T13:22:05.679Z,101473.91
2018-07-31T13:24:35.763Z,101478.17
2018-07-31T13:27:05.348Z,101475.16
2018-07-31T13:29:35.188Z,101472.47
2018-07-31T13:32:05.182Z,101473.59
2018-07-31T13:34:35.329Z,101468.95
2018-07-31T13:37:04.910Z,101468.79
2018-07-31T13:39:34.733Z,101464.14
2018-07-31T13:42:04.308Z,101461.77
2018-07-31T13:44:33.901Z,101457.11
2018-07-31T13:47:03.631Z,101462.81
2018-07-31T13:49:33.233Z,101460.34
2018-07-31T13:52:03.006Z,101456.10
2018-07-31T13:54:32.694Z,101450.97
2018-07-31T13:57:02.200Z,101450.39
2018-07-31T13:59:31.776Z,101454.92
2018-07-31T14:02:01.744Z,101446.05
2018-07-31T14:04:31.325Z,101444.02
2018-07-31T14:07:00.864Z,101438.88
2018-07-31T14:09:30.664Z,101438.28
2018-07-31T14:12:00.086Z,101429.71
2018-07-31T14:14:29.612Z,101431.48
2018-07-31T14:16:59.464Z,101435.41
2018-07-31T14:19:28.757Z,101436.42
2018-07-31T14:21:58.190Z,101427.05
2018-07-31T14:24:27.839Z,101429.28
2018-07-31T14:26:57.168Z,101435.53
2018-07-31T14:29:26.633Z,101434.80
2018-07-31T14:31:56.312Z,101436.27
2018-07-31T14:34:25.983Z,101442.58
2018-07-31T14:36:55.490Z,101439.24
2018-07-31T14:39:25.442Z,101434.03
2018-07-31T14:41:55.066Z,101434.17
2018-07-31T14:44:24.684Z,101430.94
2018-07-31T14:46:54.481Z,101433.45
2018-07-31T14:49:23.903Z,101426.02
2018-07-31T14:51:53.603Z,101433.83
2018-07-31T14:54:23.115Z,101426.39
2018-07-31T14:56:52.479Z,101429.61
2018-07-31T14:59:22.157Z,101424.89
2018-07-31T15:01:51.792Z,101427.84
2018-07-31T15:04:21.335Z,101419.23
2018-07-31T15:06:51.283Z,101417.83
2018-07-31T15:09:20.699Z,101416.81
2018-07-31T15:11:50.416Z,101416.08
2018-07-31T15:14:19.849Z,101413.23
2018-07-31T15:16:49.585Z,101403.34
2018-07-31T15:19:19.272Z,101405.09
2018-07-31T15:21:48.972Z,101404.86
2018-07-31T15:24:18.567Z,101396.58
2018-07-31T15:26:47.979Z,101398.91
2018-07-31T15:29:17.583Z,101394.14
2018-07-31T15:31:47.289Z,101398.48
2018-07-31T15:34:16.595Z,101399.06
2018-07-31T15:36:46.099Z,101391.43
2018-07-31T15:39:15.627Z,101391.53
2018-07-31T15:41:45.035Z,101392.02
2018-07-31T15:44:14.481Z,101384.01
2018-07-31T15:46:44.674Z,101383.00
2018-07-31T15:49:14.256Z,101376.92
2018-07-31T15:51:44.084Z,101373.48
2018-07-31T15:54:13.840Z,101367.89
2018-07-31T15:56:43.160Z,101367.55
2018-07-31T15:59:13.086Z,101366.56
2018-07-31T16:01:43.149Z,101367.81
2018-07-31T16:04:12.456Z,101366.42
2018-07-31T16:06:42.257Z,101369.16
2018-07-31T16:09:12.743Z,101357.53
2018-07-31T16:11:42.395Z,101354.67
2018-07-31T16:14:11.553Z,101352.23
2018-07-31T16:16:41.237Z,101363.36
2018-07-31T16:19:10.982Z,101358.41
2018-07-31T16:21:40.138Z,101358.16
2018-07-31T16:24:10.238Z,101359.48
2018-07-31T16:26:40.011Z,101360.59
2018-07-31T16:29:09.528Z,101359.86
2018-07-31T16:31:39.578Z,101368.16
2018-07-31T16:34:09.200Z,101370.73
2018-07-31T16:36:38.649Z,101366.28
2018-07-31T16:39:10.253Z,101375.69
2018-07-31T16:41:39.760Z,101380.00
2018-07-31T16:44:09.227Z,101373.13
2018-07-31T16:46:39.221Z,101365.95
2018-07-31T16:49:08.635Z,101366.52
2018-07-31T16:51:38.124Z,101362.78
2018-07-31T16:54:07.834Z,101356.84
2018-07-31T16:56:37.361Z,101351.89
2018-07-31T16:59:07.044Z,101354.36
2018-07-31T17:01:36.732Z,101359.42
2018-07-31T17:04:06.138Z,101363.14
2018-07-31T17:06:35.649Z,101370.44
2018-07-31T17:09:06.978Z,101371.19
2018-07-31T17:11:36.853Z,101369.22
2018-07-31T17:14:08.085Z,101375.77
2018-07-31T17:16:38.296Z,101378.49
2018-07-31T17:19:08.215Z,101378.81
2018-07-31T17:21:38.153Z,101391.17
2018-07-31T17:24:08.055Z,101401.64
2018-07-31T17:26:37.625Z,101398.19
2018-07-31T17:29:07.353Z,101400.16
2018-07-31T17:31:37.206Z,101405.72
2018-07-31T17:34:06.973Z,101407.56
2018-07-31T17:36:36.627Z,101411.18
2018-07-31T17:39:09.036Z,101412.63
2018-07-31T17:41:38.998Z,101413.46
2018-07-31T17:44:08.727Z,101406.99
2018-07-31T17:46:38.212Z,101415.96
2018-07-31T17:49:08.259Z,101407.56
2018-07-31T17:51:37.886Z,101407.56
2018-07-31T17:54:07.404Z,101413.99
2018-07-31T17:56:37.341Z,101420.30
2018-07-31T17:59:06.874Z,101414.73
2018-07-31T18:01:36.551Z,101416.48
2018-07-31T18:04:06.318Z,101415.61
2018-07-31T18:06:35.681Z,101412.99
2018-07-31T18:09:06.927Z,101417.92
2018-07-31T18:11:36.876Z,101418.14
2018-07-31T18:14:06.618Z,101424.32
2018-07-31T18:16:36.300Z,101416.62
2018-07-31T18:19:06.222Z,101432.24
2018-07-31T18:21:35.847Z,101434.95
2018-07-31T18:24:06.735Z,101431.98
2018-07-31T18:26:37.125Z,101438.64
2018-07-31T18:29:06.992Z,101439.64
2018-07-31T18:31:36.522Z,101448.26
2018-07-31T18:34:06.246Z,101447.47
2018-07-31T18:36:35.977Z,101450.27
2018-07-31T18:39:07.526Z,101450.61
2018-07-31T18:41:37.412Z,101460.32
2018-07-31T18:44:06.999Z,101466.14
2018-07-31T18:46:36.781Z,101492.30
2018-07-31T18:49:06.681Z,101516.36
2018-07-31T18:51:36.397Z,101560.84
2018-07-31T18:54:06.671Z,101578.27
2018-07-31T18:56:36.377Z,101577.25
2018-07-31T18:59:06.044Z,101556.02
2018-07-31T19:01:36.304Z,101557.89
2018-07-31T19:04:06.762Z,101583.38
2018-07-31T19:06:36.380Z,101595.91
2018-07-31T19:09:10.873Z,101618.40
2018-07-31T19:11:41.266Z,101610.86
2018-07-31T19:14:10.964Z,101615.05
2018-07-31T19:16:40.678Z,101627.78
2018-07-31T19:19:10.232Z,101625.17
2018-07-31T19:21:40.562Z,101623.55
2018-07-31T19:24:10.371Z,101624.69
2018-07-31T19:26:39.983Z,101621.23
2018-07-31T19:29:09.716Z,101623.78
2018-07-31T19:31:39.532Z,101628.66
2018-07-31T19:34:09.000Z,101626.33
2018-07-31T19:36:38.625Z,101622.38
2018-07-31T19:39:09.921Z,101639.92
2018-07-31T19:41:40.025Z,101651.80
2018-07-31T19:44:10.093Z,101648.19
2018-07-31T19:46:39.826Z,101647.84
2018-07-31T19:49:09.897Z,101648.44
2018-07-31T19:51:39.368Z,101650.99
2018-07-31T19:54:08.968Z,101651.76
2018-07-31T19:56:38.768Z,101485.00
2018-07-31T19:59:08.515Z,101639.83
2018-07-31T20:01:38.276Z,101637.79
2018-07-31T20:04:08.048Z,101647.48
2018-07-31T20:06:37.703Z,101643.70
2018-07-31T20:09:09.437Z,101641.75
2018-07-31T20:11:38.816Z,101654.59
2018-07-31T20:14:08.261Z,101660.27
2018-07-31T20:16:38.229Z,101667.91
2018-07-31T20:19:08.129Z,101667.13
2018-07-31T20:21:37.812Z,101670.73
2018-07-31T20:24:07.909Z,101672.75
2018-07-31T20:26:38.112Z,101673.85
2018-07-31T20:29:07.833Z,101672.77
2018-07-31T20:31:37.679Z,101667.14
2018-07-31T20:34:07.059Z,101668.73
2018-07-31T20:36:37.652Z,101668.82
2018-07-31T20:39:10.808Z,101675.21
2018-07-31T20:41:41.278Z,101668.89
2018-07-31T20:44:11.296Z,101672.87
2018-07-31T20:46:40.755Z,101672.09
2018-07-31T20:49:10.623Z,101680.15
2018-07-31T20:51:40.594Z,101677.55
2018-07-31T20:54:10.141Z,101675.61
2018-07-31T20:56:40.030Z,101682.17
2018-07-31T20:59:09.512Z,101676.00
2018-07-31T21:01:38.973Z,101672.25
2018-07-31T21:04:08.809Z,101673.05
2018-07-31T21:06:38.705Z,101669.02
2018-07-31T21:09:10.552Z,101669.69
2018-07-31T21:11:40.045Z,101665.66
2018-07-31T21:14:09.635Z,101673.72
2018-07-31T21:16:39.341Z,101677.41
2018-07-31T21:19:08.790Z,101680.02
2018-07-31T21:21:38.189Z,101678.42
2018-07-31T21:24:07.968Z,101687.48
2018-07-31T21:26:37.526Z,101690.93
2018-07-31T21:29:06.895Z,101694.29
2018-07-31T21:31:36.592Z,101691.19
2018-07-31T21:34:07.432Z,101697.48
2018-07-31T21:36:36.901Z,101698.45
2018-07-31T21:39:10.150Z,101700.50
2018-07-31T21:41:39.740Z,101705.27
2018-07-31T21:44:09.160Z,101708.89
2018-07-31T21:46:38.708Z,101708.08
2018-07-31T21:49:08.818Z,101708.23
2018-07-31T21:51:38.277Z,101714.11
2018-07-31T21:54:07.762Z,101705.16
2018-07-31T21:56:37.150Z,101709.27
2018-07-31T21:59:06.620Z,101703.77
2018-07-31T22:01:36.485Z,101705.37
2018-07-31T22:04:05.967Z,101707.13
2018-07-31T22:06:35.307Z,101716.19
2018-07-31T22:09:07.671Z,101717.27
2018-07-31T22:11:37.082Z,101723.69
2018-07-31T22:16:34.986Z,101722.77
2018-07-31T22:19:04.425Z,101716.17
2018-07-31T22:21:33.836Z,101722.42
2018-07-31T22:24:04.022Z,101719.89
2018-07-31T22:26:33.489Z,101726.84
2018-07-31T22:29:04.200Z,101724.91
2018-07-31T22:31:33.923Z,101732.02
2018-07-31T22:34:03.365Z,101729.48
2018-07-31T22:36:33.014Z,101723.19
2018-07-31T22:39:03.335Z,101718.62
2018-07-31T22:41:32.857Z,101712.18
2018-07-31T22:44:02.377Z,101721.42
2018-07-31T22:46:32.074Z,101720.08
2018-07-31T22:49:01.516Z,101727.45
2018-07-31T22:51:30.812Z,101728.80
2018-07-31T22:54:00.988Z,101718.73
2018-07-31T22:56:30.304Z,101715.37
2018-07-31T22:58:59.725Z,101719.89
2018-07-31T23:01:29.569Z,101725.95
2018-07-31T23:03:59.058Z,101729.17
2018-07-31T23:06:28.514Z,101721.50
2018-07-31T23:08:58.743Z,101721.89
2018-07-31T23:11:28.530Z,101722.77
2018-07-31T23:13:58.084Z,101724.30
2018-07-31T23:16:28.017Z,101723.08
2018-07-31T23:18:57.402Z,101718.86
2018-07-31T23:21:26.819Z,101721.62
2018-07-31T23:23:56.696Z,101723.08
2018-07-31T23:26:26.556Z,101730.39
2018-07-31T23:28:56.119Z,101728.44
2018-07-31T23:31:26.131Z,101739.06
2018-07-31T23:33:55.641Z,101729.13
2018-07-31T23:36:25.246Z,101724.95
2018-07-31T23:38:55.158Z,101725.83
2018-07-31T23:41:24.352Z,101724.53
2018-07-31T23:43:53.769Z,101697.22
2018-07-31T23:46:23.749Z,101725.71
2018-07-31T23:48:53.344Z,101733.23
2018-07-31T23:51:23.015Z,101730.97
2018-07-31T23:53:53.179Z,101728.28
2018-07-31T23:56:22.990Z,101730.97
2018-07-31T23:58:52.480Z,101735.88
